createdAt,value
2022-08-14T00:01:12.403Z,5.68
2022-08-14T00:04:55.294Z,5.00
2022-08-14T00:08:45.098Z,6.13
2022-08-14T00:12:33.602Z,5.90
2022-08-14T00:16:41.561Z,5.68
2022-08-14T00:20:35.794Z,5.35
2022-08-14T00:24:29.040Z,5.45
2022-08-14T00:28:17.757Z,5.18
2022-08-14T00:32:02.483Z,5.55
2022-08-14T00:36:35.716Z,5.30
2022-08-14T00:40:11.114Z,5.43
2022-08-14T00:44:10.581Z,5.45
2022-08-14T00:47:54.721Z,5.00
2022-08-14T00:51:39.638Z,5.00
2022-08-14T00:55:24.893Z,5.10
2022-08-14T00:59:07.645Z,5.70
2022-08-14T01:02:53.859Z,6.38
2022-08-14T01:06:38.166Z,6.03
2022-08-14T01:10:22.941Z,5.57
2022-08-14T01:14:25.607Z,5.50
2022-08-14T01:18:27.175Z,5.40
2022-08-14T01:22:12.715Z,5.68
2022-08-14T01:25:56.711Z,5.40
2022-08-14T01:30:00.608Z,5.88
2022-08-14T01:33:59.507Z,5.05
2022-08-14T01:37:54.629Z,4.93
2022-08-14T01:41:40.152Z,4.80
2022-08-14T01:45:25.433Z,5.05
2022-08-14T01:49:10.159Z,4.85
2022-08-14T01:52:59.174Z,5.25
2022-08-14T01:56:44.735Z,5.13
2022-08-14T02:00:27.941Z,4.78
2022-08-14T02:04:20.572Z,5.10
2022-08-14T02:08:16.128Z,5.18
2022-08-14T02:12:06.757Z,5.00
2022-08-14T02:15:51.905Z,4.88
2022-08-14T02:19:35.726Z,4.78
2022-08-14T02:23:23.954Z,4.63
2022-08-14T02:28:23.888Z,4.70
2022-08-14T02:31:18.115Z,4.60
2022-08-14T02:35:18.935Z,4.72
2022-08-14T02:39:03.588Z,4.78
2022-08-14T02:42:54.023Z,4.50
2022-08-14T02:46:37.426Z,4.57
2022-08-14T02:50:26.969Z,4.47
2022-08-14T02:54:13.144Z,4.90
2022-08-14T02:58:02.969Z,4.60
2022-08-14T03:01:50.783Z,4.80
2022-08-14T03:05:41.202Z,5.20
2022-08-14T03:09:42.368Z,5.30
2022-08-14T03:13:35.699Z,5.10
2022-08-14T03:17:18.522Z,5.47
2022-08-14T03:21:07.782Z,5.20
2022-08-14T03:24:52.197Z,5.13
2022-08-14T03:28:36.873Z,5.07
2022-08-14T03:32:30.417Z,5.35
2022-08-14T03:37:28.997Z,6.00
2022-08-14T03:40:20.524Z,5.10
2022-08-14T03:45:18.969Z,5.20
2022-08-14T03:48:30.314Z,5.32
2022-08-14T03:52:37.855Z,5.53
2022-08-14T03:56:21.406Z,7.93
2022-08-14T04:00:07.427Z,4.70
2022-08-14T04:04:02.495Z,4.30
2022-08-14T04:07:49.822Z,4.90
2022-08-14T04:11:51.045Z,4.95
2022-08-14T04:15:56.592Z,5.10
2022-08-14T04:19:39.996Z,4.73
2022-08-14T04:23:29.394Z,5.00
2022-08-14T04:27:17.265Z,4.83
2022-08-14T04:31:00.068Z,4.97
2022-08-14T04:34:42.810Z,4.73
2022-08-14T04:38:52.475Z,4.43
2022-08-14T04:42:55.243Z,4.97
2022-08-14T04:46:56.110Z,4.40
2022-08-14T04:50:44.417Z,4.67
2022-08-14T04:54:28.191Z,4.60
2022-08-14T04:58:21.939Z,4.60
2022-08-14T05:02:16.570Z,4.60
2022-08-14T05:06:03.109Z,5.30
2022-08-14T05:09:47.827Z,4.57
2022-08-14T05:13:42.304Z,4.97
2022-08-14T05:17:43.997Z,4.90
2022-08-14T05:21:59.903Z,4.53
2022-08-14T05:25:33.543Z,4.60
2022-08-14T05:29:18.454Z,4.30
2022-08-14T05:33:01.501Z,4.40
2022-08-14T05:36:50.643Z,4.10
2022-08-14T05:40:45.544Z,4.00
2022-08-14T05:44:30.962Z,3.90
2022-08-14T05:48:32.772Z,4.00
2022-08-14T05:52:18.142Z,3.97
2022-08-14T05:56:01.272Z,4.10
2022-08-14T05:59:45.369Z,3.85
2022-08-14T06:03:28.224Z,4.15
2022-08-14T06:07:11.816Z,4.47
2022-08-14T06:10:56.977Z,3.67
2022-08-14T06:14:39.799Z,4.85
2022-08-14T06:18:25.170Z,4.47
2022-08-14T06:22:08.074Z,4.50
2022-08-14T06:25:52.751Z,5.45
2022-08-14T06:29:37.463Z,3.90
2022-08-14T06:33:21.790Z,3.45
2022-08-14T06:37:06.895Z,3.60
2022-08-14T06:40:53.307Z,3.28
2022-08-14T06:44:36.614Z,3.75
2022-08-14T06:48:21.725Z,4.00
2022-08-14T06:52:06.820Z,4.22
2022-08-14T06:55:58.263Z,4.20
2022-08-14T06:59:43.750Z,3.38
2022-08-14T07:03:40.385Z,3.30
2022-08-14T07:07:28.695Z,3.47
2022-08-14T07:11:12.955Z,3.42
2022-08-14T07:15:00.953Z,3.92
2022-08-14T07:18:45.704Z,3.47
2022-08-14T07:22:56.340Z,3.95
2022-08-14T07:26:38.812Z,4.00
2022-08-14T07:30:33.944Z,3.60
2022-08-14T07:34:35.944Z,3.65
2022-08-14T07:38:22.918Z,3.50
2022-08-14T07:42:06.170Z,3.42
2022-08-14T07:45:50.863Z,3.40
2022-08-14T07:49:37.105Z,3.17
2022-08-14T07:53:21.741Z,3.20
2022-08-14T07:57:12.281Z,3.22
2022-08-14T08:00:56.962Z,3.15
2022-08-14T08:04:44.909Z,3.40
2022-08-14T08:08:31.390Z,3.30
2022-08-14T08:12:15.851Z,3.10
2022-08-14T08:15:59.022Z,3.13
2022-08-14T08:19:41.826Z,3.45
2022-08-14T08:23:34.566Z,3.30
2022-08-14T08:27:24.415Z,2.97
2022-08-14T08:31:08.410Z,2.97
2022-08-14T08:34:51.503Z,3.05
2022-08-14T08:39:17.705Z,3.53
2022-08-14T08:42:41.422Z,3.17
2022-08-14T08:46:27.468Z,3.00
2022-08-14T08:50:23.302Z,3.50
2022-08-14T08:54:19.709Z,3.45
2022-08-14T08:58:15.942Z,3.25
2022-08-14T09:02:01.050Z,4.30
2022-08-14T09:05:53.973Z,3.78
2022-08-14T09:09:54.533Z,4.00
2022-08-14T09:13:42.974Z,3.90
2022-08-14T09:17:26.348Z,5.35
2022-08-14T09:21:09.408Z,4.03
2022-08-14T09:24:55.276Z,3.78
2022-08-14T09:28:38.112Z,3.65
2022-08-14T09:33:09.312Z,3.80
2022-08-14T09:36:47.392Z,3.22
2022-08-14T09:40:40.628Z,3.38
2022-08-14T09:44:34.553Z,3.50
2022-08-14T09:48:19.976Z,3.47
2022-08-14T09:52:32.863Z,3.17
2022-08-14T09:56:24.366Z,4.03
2022-08-14T10:00:29.288Z,3.47
2022-08-14T10:04:33.120Z,3.50
2022-08-14T10:08:26.567Z,3.33
2022-08-14T10:12:16.438Z,3.45
2022-08-14T10:16:01.846Z,3.42
2022-08-14T10:19:50.251Z,3.25
2022-08-14T10:23:43.947Z,3.45
2022-08-14T10:27:27.289Z,3.47
2022-08-14T10:31:25.720Z,3.38
2022-08-14T10:35:14.167Z,3.60
2022-08-14T10:38:59.213Z,3.33
2022-08-14T10:42:43.791Z,3.47
2022-08-14T10:47:40.874Z,3.70
2022-08-14T10:50:34.477Z,3.50
2022-08-14T10:54:36.170Z,5.50
2022-08-14T10:58:34.173Z,7.40
2022-08-14T11:02:45.028Z,5.75
2022-08-14T11:06:27.257Z,5.00
2022-08-14T11:10:12.331Z,4.18
2022-08-14T11:13:57.408Z,3.90
2022-08-14T11:17:40.166Z,3.22
2022-08-14T11:21:34.242Z,3.22
2022-08-14T11:25:17.854Z,5.22
2022-08-14T11:29:01.666Z,3.95
2022-08-14T11:32:48.636Z,3.70
2022-08-14T11:37:02.467Z,3.28
2022-08-14T11:40:37.559Z,3.20
2022-08-14T11:44:21.065Z,3.72
2022-08-14T11:49:03.835Z,3.67
2022-08-14T11:52:40.290Z,3.10
2022-08-14T11:56:25.727Z,3.05
2022-08-14T12:00:19.942Z,2.50
2022-08-14T12:04:32.603Z,2.50
2022-08-14T12:08:24.306Z,2.40
2022-08-14T12:12:16.246Z,2.42
2022-08-14T12:16:22.787Z,2.00
2022-08-14T12:20:09.353Z,2.00
2022-08-14T12:24:06.057Z,1.88
2022-08-14T12:27:54.711Z,2.00
2022-08-14T12:31:44.481Z,2.28
2022-08-14T12:35:40.345Z,2.50
2022-08-14T12:39:24.536Z,2.63
2022-08-14T12:43:08.941Z,2.40
2022-08-14T12:47:07.323Z,2.10
2022-08-14T12:50:52.253Z,2.22
2022-08-14T12:54:37.042Z,2.30
2022-08-14T12:58:51.908Z,2.05
2022-08-14T13:02:39.347Z,1.95
2022-08-14T13:06:27.270Z,2.75
2022-08-14T13:10:47.316Z,2.40
2022-08-14T13:14:24.718Z,2.47
2022-08-14T13:18:13.327Z,2.72
2022-08-14T13:22:09.924Z,2.60
2022-08-14T13:25:56.026Z,4.55
2022-08-14T13:29:46.591Z,3.10
2022-08-14T13:33:31.662Z,3.20
2022-08-14T13:37:17.235Z,2.90
2022-08-14T13:41:01.711Z,3.22
2022-08-14T13:44:46.070Z,2.83
2022-08-14T13:48:33.227Z,2.22
2022-08-14T13:52:51.628Z,2.33
2022-08-14T13:56:36.623Z,2.72
2022-08-14T14:00:21.714Z,2.95
2022-08-14T14:04:19.642Z,2.75
2022-08-14T14:08:02.905Z,2.75
2022-08-14T14:11:47.955Z,3.08
2022-08-14T14:15:57.971Z,3.25
2022-08-14T14:19:43.305Z,2.85
2022-08-14T14:23:27.711Z,2.90
2022-08-14T14:27:39.586Z,3.13
2022-08-14T14:31:29.674Z,3.15
2022-08-14T14:35:15.415Z,2.97
2022-08-14T14:39:01.157Z,3.10
2022-08-14T14:42:48.828Z,2.90
2022-08-14T14:46:37.840Z,3.30
2022-08-14T14:50:25.058Z,3.25
2022-08-14T14:54:08.803Z,3.08
2022-08-14T14:57:57.286Z,3.13
2022-08-14T15:01:40.248Z,3.35
2022-08-14T15:05:24.730Z,3.20
2022-08-14T15:09:11.062Z,3.40
2022-08-14T15:13:04.316Z,2.78
2022-08-14T15:16:47.406Z,3.05
2022-08-14T15:20:33.429Z,2.60
2022-08-14T15:24:20.953Z,2.83
2022-08-14T15:28:13.057Z,3.08
2022-08-14T15:32:04.225Z,3.10
2022-08-14T15:35:52.042Z,2.80
2022-08-14T15:39:45.681Z,2.60
2022-08-14T15:43:31.319Z,3.15
2022-08-14T15:47:22.679Z,2.90
2022-08-14T15:51:11.339Z,2.67
2022-08-14T15:54:55.550Z,3.05
2022-08-14T15:58:40.389Z,2.85
2022-08-14T16:02:24.580Z,2.85
2022-08-14T16:06:15.591Z,3.15
2022-08-14T16:10:27.754Z,2.92
2022-08-14T16:14:06.762Z,2.80
2022-08-14T16:17:50.179Z,2.78
2022-08-14T16:21:33.537Z,2.92
2022-08-14T16:25:34.804Z,3.30
2022-08-14T16:29:20.536Z,3.40
2022-08-14T16:33:06.813Z,3.17
2022-08-14T16:36:50.810Z,3.15
2022-08-14T16:40:42.972Z,3.20
2022-08-14T16:44:41.028Z,3.10
2022-08-14T16:48:55.192Z,3.40
2022-08-14T16:52:44.373Z,3.70
2022-08-14T16:56:36.985Z,3.30
2022-08-14T17:00:29.848Z,4.00
2022-08-14T17:04:24.706Z,5.88
2022-08-14T17:08:41.676Z,4.18
2022-08-14T17:12:33.651Z,6.05
2022-08-14T17:16:24.276Z,3.95
2022-08-14T17:20:54.695Z,3.90
2022-08-14T17:24:57.230Z,3.50
2022-08-14T17:28:52.622Z,3.70
2022-08-14T17:32:44.339Z,3.83
2022-08-14T17:36:30.602Z,4.68
2022-08-14T17:40:16.502Z,3.65
2022-08-14T17:44:11.636Z,3.45
2022-08-14T17:47:59.315Z,3.70
2022-08-14T17:52:03.747Z,3.80
2022-08-14T17:56:02.913Z,4.85
2022-08-14T17:59:48.347Z,6.45
2022-08-14T18:03:50.848Z,4.35
2022-08-14T18:07:59.763Z,6.07
2022-08-14T18:11:45.930Z,4.45
2022-08-14T18:15:36.882Z,4.10
2022-08-14T18:19:23.026Z,4.30
2022-08-14T18:23:12.825Z,4.45
2022-08-14T18:27:01.774Z,3.90
2022-08-14T18:30:58.265Z,4.60
2022-08-14T18:34:50.939Z,5.30
2022-08-14T18:38:55.092Z,4.80
2022-08-14T18:42:46.793Z,5.30
2022-08-14T18:46:59.781Z,4.80
2022-08-14T18:50:35.213Z,4.80
2022-08-14T18:54:33.042Z,5.45
2022-08-14T18:58:30.953Z,5.68
2022-08-14T19:02:42.946Z,6.38
2022-08-14T19:06:43.396Z,5.68
2022-08-14T19:10:37.253Z,5.38
2022-08-14T19:14:44.883Z,6.47
2022-08-14T19:18:38.540Z,6.43
2022-08-14T19:22:30.227Z,6.10
2022-08-14T19:26:36.040Z,5.75
2022-08-14T19:30:23.336Z,5.57
2022-08-14T19:34:07.022Z,4.95
2022-08-14T19:37:54.862Z,5.65
2022-08-14T19:41:40.663Z,5.57
2022-08-14T19:45:34.869Z,5.15
2022-08-14T19:49:23.200Z,7.28
2022-08-14T19:53:21.947Z,6.53
2022-08-14T19:57:05.230Z,5.93
2022-08-14T20:00:57.145Z,7.13
2022-08-14T20:04:47.268Z,7.00
2022-08-14T20:09:05.849Z,6.50
2022-08-14T20:12:58.243Z,6.25
2022-08-14T20:16:43.176Z,8.25
2022-08-14T20:20:32.092Z,6.80
2022-08-14T20:24:30.554Z,6.40
2022-08-14T20:28:30.072Z,6.07
2022-08-14T20:32:14.791Z,5.72
2022-08-14T20:35:57.614Z,6.68
2022-08-14T20:39:45.236Z,6.40
2022-08-14T20:43:59.642Z,6.13
2022-08-14T20:47:48.279Z,5.90
2022-08-14T20:51:47.486Z,9.85
2022-08-14T20:55:45.001Z,6.60
2022-08-14T20:59:30.355Z,6.13
2022-08-14T21:03:34.778Z,6.60
2022-08-14T21:07:25.644Z,6.57
2022-08-14T21:11:21.982Z,6.18
2022-08-14T21:15:11.084Z,6.57
2022-08-14T21:18:56.979Z,5.80
2022-08-14T21:22:44.992Z,6.03
2022-08-14T21:26:51.474Z,6.03
2022-08-14T21:30:51.241Z,6.45
2022-08-14T21:34:37.465Z,6.18
2022-08-14T21:38:20.353Z,7.85
2022-08-14T21:42:14.136Z,13.90
2022-08-14T21:46:00.299Z,13.07
2022-08-14T21:49:48.121Z,7.97
2022-08-14T21:53:32.827Z,8.15
2022-08-14T21:57:17.294Z,6.90
2022-08-14T22:01:00.194Z,6.72
2022-08-14T22:04:45.985Z,6.93
2022-08-14T22:08:32.794Z,6.40
2022-08-14T22:12:47.190Z,7.07
2022-08-14T22:17:00.064Z,6.72
2022-08-14T22:20:29.945Z,6.85
2022-08-14T22:24:37.796Z,6.20
2022-08-14T22:28:20.931Z,6.68
2022-08-14T22:32:07.297Z,7.00
2022-08-14T22:35:56.165Z,6.20
2022-08-14T22:40:17.124Z,6.45
2022-08-14T22:43:42.405Z,6.90
2022-08-14T22:47:26.413Z,6.55
2022-08-14T22:51:26.096Z,6.13
2022-08-14T22:55:11.353Z,5.70
2022-08-14T22:58:54.549Z,6.60
2022-08-14T23:02:37.473Z,5.97
2022-08-14T23:07:02.515Z,5.43
2022-08-14T23:10:32.238Z,5.80
2022-08-14T23:14:23.776Z,5.50
2022-08-14T23:18:07.491Z,5.40
2022-08-14T23:21:56.055Z,5.70
2022-08-14T23:25:58.700Z,5.30
2022-08-14T23:29:43.552Z,5.78
2022-08-14T23:33:26.794Z,5.20
2022-08-14T23:37:09.628Z,5.10
2022-08-14T23:40:53.771Z,5.55
2022-08-14T23:44:39.180Z,5.20
2022-08-14T23:48:24.850Z,5.03
2022-08-14T23:52:51.575Z,4.93
2022-08-14T23:56:20.430Z,4.72
